Time;durP1;ratioP1;P1;durP2;ratioP2;P2;SDS_P1;SDS_P2;PMS_P1;PMS_P2;Temp;Humidity;BMP_temperature;BMP_pressure;BME280_temperature;BME280_humidity;BME280_pressure;Samples;Min_cycle;Max_cycle;Signal;HPM_P1;HPM_P2
2021/09/06 00:00:23;;;;;;;5.70;5.10;;;;;;;24.58;55.24;99903.09;2058263;28;20076;-43
2021/09/06 00:01:24;;;;;;;5.77;5.17;;;;;;;24.59;55.42;99898.44;2062977;28;20439;-42
2021/09/06 00:02:24;;;;;;;5.50;4.90;;;;;;;24.59;55.29;99898.44;2056908;28;20025;-43
2021/09/06 00:03:25;;;;;;;6.47;5.87;;;;;;;24.59;55.54;99887.41;2058091;28;20440;-43
2021/09/06 00:04:25;;;;;;;5.53;5.03;;;;;;;24.58;55.48;99888.47;2059338;28;20108;-42
2021/09/06 00:05:26;;;;;;;5.63;4.90;;;;;;;24.57;55.64;99890.38;2060293;28;20029;-42
2021/09/06 00:06:26;;;;;;;5.43;4.93;;;;;;;24.58;55.42;99894.81;2060816;28;20026;-42
2021/09/06 00:07:27;;;;;;;5.72;5.13;;;;;;;24.58;55.38;99891.22;2059923;28;20125;-42
2021/09/06 00:08:28;;;;;;;5.57;5.07;;;;;;;24.59;55.42;99893.78;2059402;28;20045;-42
2021/09/06 00:09:32;;;;;;;5.97;5.37;;;;;;;24.58;55.35;99892.06;2058166;28;20034;-43
2021/09/06 00:10:32;;;;;;;7.00;4.90;;;;;;;24.58;55.55;99888.47;2059503;28;20311;-42
2021/09/06 00:11:33;;;;;;;6.20;5.57;;;;;;;24.58;55.67;99885.72;2060434;28;20014;-42
2021/09/06 00:12:33;;;;;;;5.27;4.60;;;;;;;24.58;55.65;99885.72;2062825;28;20033;-42
2021/09/06 00:13:35;;;;;;;7.50;5.77;;;;;;;24.58;55.60;99877.44;2062929;28;20034;-42
2021/09/06 00:14:35;;;;;;;7.18;5.82;;;;;;;24.58;55.65;99885.72;2060311;28;20121;-43
2021/09/06 00:15:37;;;;;;;5.70;5.10;;;;;;;24.57;55.51;99893.13;2058855;28;20041;-43
2021/09/06 00:16:38;;;;;;;5.45;4.93;;;;;;;24.57;55.83;99884.88;2058573;28;20272;-43
2021/09/06 00:17:38;;;;;;;4.90;4.40;;;;;;;24.56;55.71;99888.66;2058128;28;20439;-43
2021/09/06 00:18:38;;;;;;;5.50;5.00;;;;;;;24.58;55.74;99891.22;2057359;28;20059;-43
2021/09/06 00:19:39;;;;;;;5.13;4.63;;;;;;;24.56;55.76;99883.13;2060224;28;20029;-43
2021/09/06 00:20:41;;;;;;;6.23;5.63;;;;;;;24.57;55.64;99886.75;2055600;28;20851;-42
2021/09/06 00:21:42;;;;;;;5.50;5.00;;;;;;;24.57;55.78;99893.13;2059304;28;20088;-42
2021/09/06 00:22:42;;;;;;;5.30;4.80;;;;;;;24.57;55.73;99895.00;2060446;28;20491;-43
2021/09/06 00:23:43;;;;;;;6.20;5.07;;;;;;;24.57;55.65;99889.50;2058848;28;20487;-42
2021/09/06 00:24:44;;;;;;;5.97;5.13;;;;;;;24.57;55.60;99883.97;2059450;28;20124;-42
2021/09/06 00:25:44;;;;;;;5.40;4.90;;;;;;;24.57;55.64;99889.50;2061103;28;20029;-42
2021/09/06 00:26:45;;;;;;;6.13;5.50;;;;;;;24.58;55.87;99888.47;2059838;28;20038;-43
2021/09/06 00:27:45;;;;;;;5.67;5.17;;;;;;;24.57;55.83;99890.38;2056266;28;20077;-42
2021/09/06 00:28:46;;;;;;;5.27;4.77;;;;;;;24.56;55.81;99885.03;2055705;28;20439;-43
2021/09/06 00:29:46;;;;;;;5.30;4.80;;;;;;;24.57;55.64;99889.50;2058255;28;20106;-42
2021/09/06 00:30:47;;;;;;;5.70;5.00;;;;;;;24.57;55.87;99889.50;2059724;28;20037;-43
2021/09/06 00:31:47;;;;;;;6.43;5.07;;;;;;;24.56;55.80;99885.03;2062175;28;20030;-43
2021/09/06 00:32:48;;;;;;;5.63;5.10;;;;;;;24.56;55.53;99882.28;2056510;28;20320;-42
2021/09/06 00:33:48;;;;;;;5.57;4.83;;;;;;;24.58;55.76;99886.56;2060424;28;20052;-42
2021/09/06 00:34:49;;;;;;;5.77;5.27;;;;;;;24.57;55.89;99883.97;2057937;28;20154;-42
2021/09/06 00:35:50;;;;;;;6.57;5.87;;;;;;;24.57;55.89;99884.88;2059452;28;20026;-42
2021/09/06 00:36:50;;;;;;;5.30;4.80;;;;;;;24.56;55.84;99885.88;2059583;28;20029;-42
2021/09/06 00:37:50;;;;;;;5.57;4.97;;;;;;;24.57;55.92;99889.50;2056731;28;20018;-42
2021/09/06 00:38:51;;;;;;;6.07;5.17;;;;;;;24.56;55.92;99885.88;2060614;28;20026;-42
2021/09/06 00:39:51;;;;;;;6.30;5.17;;;;;;;24.57;56.02;99883.97;2061042;28;20104;-43
2021/09/06 00:40:52;;;;;;;5.07;4.57;;;;;;;24.57;55.84;99892.25;2060162;28;20714;-43
2021/09/06 00:41:53;;;;;;;5.63;4.97;;;;;;;24.56;55.80;99887.78;2061420;28;20085;-42
2021/09/06 00:42:53;;;;;;;7.17;5.80;;;;;;;24.58;55.64;99885.72;2059884;28;20125;-42
2021/09/06 00:43:54;;;;;;;6.43;4.97;;;;;;;24.57;55.96;99889.50;2060517;28;20732;-42
2021/09/06 00:44:54;;;;;;;6.70;5.60;;;;;;;24.56;55.71;99885.03;2057708;28;20030;-43
2021/09/06 00:45:56;;;;;;;5.00;4.53;;;;;;;24.57;55.98;99889.50;2059326;28;20107;-42
2021/09/06 00:47:00;;;;;;;5.78;4.88;;;;;;;24.56;55.69;99890.56;2061625;28;20376;-43
2021/09/06 00:48:00;;;;;;;5.13;4.63;;;;;;;24.56;55.85;99888.66;2061958;28;20026;-43
2021/09/06 00:49:01;;;;;;;6.23;5.63;;;;;;;24.56;55.91;99888.66;2059787;28;20038;-42
2021/09/06 00:50:06;;;;;;;6.07;5.10;;;;;;;24.55;55.66;99886.09;2058826;28;20498;-42
2021/09/06 00:51:06;;;;;;;5.60;4.93;;;;;;;24.57;55.75;99883.97;2056580;28;20022;-42
2021/09/06 00:52:07;;;;;;;5.77;4.93;;;;;;;24.56;55.97;99882.28;2060865;28;20022;-42
2021/09/06 00:53:08;;;;;;;7.20;4.93;;;;;;;24.56;55.81;99883.13;2061494;28;20022;-42
2021/09/06 00:54:09;;;;;;;5.55;4.93;;;;;;;24.57;55.90;99883.97;2063457;28;20324;-42
2021/09/06 00:55:11;;;;;;;6.27;5.03;;;;;;;24.56;55.84;99882.28;2065158;28;20127;-42
2021/09/06 00:56:12;;;;;;;6.25;5.40;;;;;;;24.56;56.07;99879.53;2063728;28;20034;-43
2021/09/06 00:57:12;;;;;;;4.80;4.30;;;;;;;24.56;56.06;99882.28;2061946;28;20014;-43
2021/09/06 00:58:13;;;;;;;6.60;5.80;;;;;;;24.55;55.89;99881.44;2059893;28;20432;-42
2021/09/06 00:59:13;;;;;;;5.70;5.13;;;;;;;24.56;55.96;99882.28;2062339;28;20478;-42
2021/09/06 01:00:15;;;;;;;5.67;5.10;;;;;;;24.55;55.81;99881.44;2059302;28;20036;-43
2021/09/06 01:01:16;;;;;;;;;;;;;;;24.51;56.04;99887.53;2065002;28;20354;-42
2021/09/06 01:02:16;;;;;;;5.50;5.00;;;;;;;24.52;55.85;99878.19;2060221;28;19964;-42
2021/09/06 01:03:17;;;;;;;6.83;5.83;;;;;;;24.53;55.89;99882.69;2064278;28;20085;-42
2021/09/06 01:04:17;;;;;;;6.73;6.03;;;;;;;24.54;56.21;99884.38;2064745;28;20033;-42
2021/09/06 01:05:18;;;;;;;6.20;5.20;;;;;;;24.55;55.91;99883.34;2059819;28;20030;-42
2021/09/06 01:06:18;;;;;;;6.30;5.43;;;;;;;24.53;55.84;99883.53;2060774;28;21033;-42
2021/09/06 01:07:19;;;;;;;5.60;5.03;;;;;;;24.54;55.91;99884.38;2061385;28;20060;-43
2021/09/06 01:08:19;;;;;;;5.70;5.20;;;;;;;24.54;55.93;99884.38;2057304;28;20084;-43
2021/09/06 01:09:19;;;;;;;7.10;4.77;;;;;;;24.54;55.86;99878.88;2063396;28;20080;-43
2021/09/06 01:10:20;;;;;;;5.77;5.20;;;;;;;24.54;56.13;99879.72;2059257;28;20029;-42
2021/09/06 01:11:21;;;;;;;5.10;4.60;;;;;;;24.54;56.15;99876.09;2059912;28;20026;-42
2021/09/06 01:12:22;;;;;;;5.23;4.73;;;;;;;24.53;56.18;99880.78;2065100;28;20021;-42
2021/09/06 01:13:23;;;;;;;5.28;4.57;;;;;;;24.54;56.07;99881.63;2058932;28;20032;-42
2021/09/06 01:14:23;;;;;;;6.07;5.30;;;;;;;24.54;56.00;99873.34;2066848;28;20033;-43
2021/09/06 01:15:23;;;;;;;5.77;5.17;;;;;;;24.54;56.06;99879.72;2056433;28;20037;-42
2021/09/06 01:16:24;;;;;;;5.43;4.93;;;;;;;24.54;55.77;99874.19;2060971;28;20022;-42
2021/09/06 01:17:24;;;;;;;5.63;4.97;;;;;;;24.53;56.22;99874.41;2062766;28;20088;-42
2021/09/06 01:18:25;;;;;;;5.17;4.67;;;;;;;24.54;55.90;99874.19;2059304;28;20092;-43
2021/09/06 01:19:26;;;;;;;5.60;5.03;;;;;;;24.55;56.21;99880.59;2067607;28;20029;-42
2021/09/06 01:20:26;;;;;;;5.40;4.90;;;;;;;24.54;56.32;99873.34;2059059;28;20112;-42
2021/09/06 01:21:27;;;;;;;5.93;5.30;;;;;;;24.54;55.97;99870.59;2061252;28;20076;-42
2021/09/06 01:22:28;;;;;;;5.93;4.60;;;;;;;24.54;56.22;99873.34;2067035;28;20060;-42
2021/09/06 01:23:28;;;;;;;5.20;4.70;;;;;;;24.54;56.15;99873.34;2057034;28;20033;-42
2021/09/06 01:24:29;;;;;;;5.60;5.10;;;;;;;24.54;56.14;99876.09;2056611;28;20058;-45
2021/09/06 01:25:29;;;;;;;6.00;5.30;;;;;;;24.54;55.92;99873.34;2055823;28;20034;-42
2021/09/06 01:26:30;;;;;;;5.23;4.73;;;;;;;24.53;55.98;99866.16;2056222;28;20371;-42
2021/09/06 01:27:31;;;;;;;6.00;5.40;;;;;;;24.53;56.18;99866.16;2062109;28;21009;-42
2021/09/06 01:28:32;;;;;;;6.65;5.03;;;;;;;24.55;55.99;99869.56;2056887;28;20178;-48
2021/09/06 01:29:32;;;;;;;6.23;5.63;;;;;;;24.53;56.10;99866.16;2058853;28;20614;-48
2021/09/06 01:30:32;;;;;;;6.30;5.63;;;;;;;24.55;56.00;99875.06;2054503;28;20030;-48
2021/09/06 01:31:33;;;;;;;5.20;4.70;;;;;;;24.53;56.05;99871.66;2061181;28;20582;-48
2021/09/06 01:32:33;;;;;;;5.33;4.83;;;;;;;24.54;56.12;99873.34;2058657;28;20350;-48
2021/09/06 01:33:34;;;;;;;6.73;5.43;;;;;;;24.53;56.10;99874.41;2060496;28;20916;-42
2021/09/06 01:34:34;;;;;;;5.00;4.50;;;;;;;24.54;56.06;99871.44;2060251;28;20064;-42
2021/09/06 01:35:35;;;;;;;4.83;4.33;;;;;;;24.53;56.05;99877.16;2062018;28;20273;-42
2021/09/06 01:36:36;;;;;;;5.70;4.93;;;;;;;24.54;56.31;99876.09;2059992;28;20034;-42
2021/09/06 01:37:38;;;;;;;5.22;4.72;;;;;;;24.52;56.22;99876.31;2058516;28;20053;-42
2021/09/06 01:38:38;;;;;;;5.07;4.57;;;;;;;24.53;56.27;99883.53;2065167;28;20037;-43
2021/09/06 01:39:38;;;;;;;6.10;4.50;;;;;;;24.53;56.47;99882.69;2059399;28;20331;-43
2021/09/06 01:40:39;;;;;;;5.60;5.10;;;;;;;24.52;56.33;99878.19;2061281;28;20116;-42
2021/09/06 01:41:40;;;;;;;5.73;5.10;;;;;;;24.52;56.21;99875.44;2069023;28;20033;-42
2021/09/06 01:42:40;;;;;;;5.10;4.60;;;;;;;24.54;56.23;99878.88;2057662;28;20017;-42
2021/09/06 01:43:41;;;;;;;5.80;5.13;;;;;;;24.53;56.00;99882.69;2058461;28;20444;-42
2021/09/06 01:44:42;;;;;;;7.23;4.60;;;;;;;24.51;56.03;99882.00;2062239;28;20021;-42
2021/09/06 01:45:42;;;;;;;5.93;5.10;;;;;;;24.52;56.24;99878.19;2057653;28;20973;-42
2021/09/06 01:46:43;;;;;;;5.30;4.80;;;;;;;24.52;56.10;99875.44;2061211;28;20032;-42
2021/09/06 01:47:44;;;;;;;5.77;4.83;;;;;;;24.52;56.26;99881.81;2058706;28;20323;-43
2021/09/06 01:48:44;;;;;;;5.47;4.97;;;;;;;24.53;56.31;99877.16;2060452;28;20029;-42
2021/09/06 01:49:45;;;;;;;5.20;4.70;;;;;;;24.52;56.32;99875.44;2057536;28;20102;-42
2021/09/06 01:50:45;;;;;;;5.40;4.90;;;;;;;24.53;56.18;99866.16;2058183;28;20105;-42
2021/09/06 01:51:45;;;;;;;6.03;4.97;;;;;;;24.52;56.14;99875.44;2067000;28;20040;-42
2021/09/06 01:52:46;;;;;;;5.83;5.17;;;;;;;24.52;56.18;99869.94;2059228;28;20264;-42
2021/09/06 01:53:47;;;;;;;5.03;4.30;;;;;;;24.52;56.30;99869.94;2056854;28;20315;-42
2021/09/06 01:54:47;;;;;;;5.47;4.70;;;;;;;24.51;56.11;99874.59;2060177;28;20108;-43
2021/09/06 01:55:48;;;;;;;5.93;5.23;;;;;;;24.52;56.38;99869.94;2057763;28;20026;-42
2021/09/06 01:56:48;;;;;;;5.77;5.17;;;;;;;24.51;56.38;99870.97;2056695;28;20101;-42
2021/09/06 01:57:49;;;;;;;4.80;4.30;;;;;;;24.51;56.33;99873.75;2056232;28;20033;-43
2021/09/06 01:58:49;;;;;;;4.83;4.33;;;;;;;24.51;56.31;99873.75;2060527;28;20026;-43
2021/09/06 01:59:50;;;;;;;6.72;4.93;;;;;;;24.52;56.17;99869.94;2054783;28;20148;-43
2021/09/06 02:00:50;;;;;;;5.47;4.97;;;;;;;24.51;56.27;99874.59;2060156;28;20040;-42
2021/09/06 02:01:51;;;;;;;4.73;4.23;;;;;;;24.50;56.22;99870.13;2056349;28;20517;-42
2021/09/06 02:02:51;;;;;;;8.13;5.10;;;;;;;24.51;56.22;99873.75;2068520;28;20026;-43
2021/09/06 02:03:52;;;;;;;5.23;4.73;;;;;;;24.51;56.32;99868.22;2059916;28;20029;-42
2021/09/06 02:04:52;;;;;;;5.87;4.93;;;;;;;24.52;56.40;99869.94;2059629;28;20026;-43
2021/09/06 02:05:52;;;;;;;5.40;4.90;;;;;;;24.51;56.24;99876.50;2062732;28;20064;-42
2021/09/06 02:06:53;;;;;;;5.43;4.67;;;;;;;24.52;56.24;99880.94;2065117;28;20526;-42
2021/09/06 02:07:53;;;;;;;5.03;4.40;;;;;;;24.51;56.40;99882.00;2068934;28;20026;-42
2021/09/06 02:08:54;;;;;;;4.97;4.47;;;;;;;24.51;56.29;99880.09;2059596;28;20084;-42
2021/09/06 02:09:54;;;;;;;5.27;4.73;;;;;;;24.51;56.17;99879.25;2063476;28;20075;-43
2021/09/06 02:10:55;;;;;;;5.33;4.83;;;;;;;24.50;56.54;99872.00;2059773;28;20419;-42
2021/09/06 02:11:55;;;;;;;5.07;4.60;;;;;;;24.51;56.26;99879.25;2056961;28;20113;-42
2021/09/06 02:12:56;;;;;;;5.93;4.90;;;;;;;24.51;56.10;99879.25;2056471;28;20029;-42
2021/09/06 02:13:56;;;;;;;5.03;4.43;;;;;;;24.51;56.11;99870.97;2060742;28;20356;-42
2021/09/06 02:14:57;;;;;;;5.57;4.80;;;;;;;24.51;56.31;99873.75;2057261;28;20026;-42
2021/09/06 02:15:58;;;;;;;4.73;4.33;;;;;;;24.51;56.40;99874.59;2059594;28;20026;-43
2021/09/06 02:16:59;;;;;;;5.45;4.95;;;;;;;24.50;56.35;99878.41;2057599;28;20071;-42
2021/09/06 02:18:00;;;;;;;5.23;4.73;;;;;;;24.50;56.41;99877.53;2059065;28;20116;-42
2021/09/06 02:19:00;;;;;;;4.80;4.20;;;;;;;24.51;56.55;99876.50;2058230;28;20432;-42
2021/09/06 02:20:01;;;;;;;5.93;5.33;;;;;;;24.51;56.18;99873.75;2058162;28;20045;-42
2021/09/06 02:21:01;;;;;;;4.80;4.40;;;;;;;24.51;56.32;99873.75;2059716;28;20018;-48
2021/09/06 02:22:02;;;;;;;5.83;5.00;;;;;;;24.50;56.36;99877.53;2057172;28;20452;-42
2021/09/06 02:23:02;;;;;;;4.90;4.40;;;;;;;24.50;56.40;99878.41;2061731;28;20429;-42
2021/09/06 02:24:03;;;;;;;5.90;5.30;;;;;;;24.51;56.34;99879.25;2062237;28;20603;-43
2021/09/06 02:25:05;;;;;;;4.53;4.13;;;;;;;24.50;56.40;99877.53;2057353;28;20014;-42
2021/09/06 02:26:05;;;;;;;4.85;4.35;;;;;;;24.49;56.39;99868.41;2058057;28;20278;-42
2021/09/06 02:27:06;;;;;;;5.20;4.70;;;;;;;24.50;56.23;99872.00;2056205;28;20037;-43
2021/09/06 02:28:06;;;;;;;5.03;4.53;;;;;;;24.50;56.28;99880.28;2059753;28;20029;-42
2021/09/06 02:29:07;;;;;;;7.07;5.07;;;;;;;24.49;56.35;99884.94;2056827;28;20462;-42
2021/09/06 02:30:08;;;;;;;5.30;4.77;;;;;;;24.50;56.50;99877.53;2058910;28;20264;-42
2021/09/06 02:31:09;;;;;;;4.70;4.28;;;;;;;24.49;56.51;99876.69;2056552;28;20530;-42
2021/09/06 02:32:10;;;;;;;5.07;4.57;;;;;;;24.50;56.28;99874.75;2056408;28;20536;-42
2021/09/06 02:33:10;;;;;;;5.38;4.88;;;;;;;24.49;56.16;99875.81;2056526;28;21009;-42
2021/09/06 02:34:11;;;;;;;4.83;4.30;;;;;;;24.50;56.33;99880.28;2059596;28;20611;-42
2021/09/06 02:35:11;;;;;;;4.30;3.90;;;;;;;24.50;56.36;99872.00;2059900;28;20103;-42
2021/09/06 02:36:12;;;;;;;5.17;4.67;;;;;;;24.50;56.55;99869.25;2057754;28;20081;-42
2021/09/06 02:37:12;;;;;;;6.90;5.23;;;;;;;24.50;56.40;99866.50;2061002;28;20116;-42
2021/09/06 02:38:12;;;;;;;5.63;5.03;;;;;;;24.50;56.54;99866.50;2055372;28;20026;-43
2021/09/06 02:39:13;;;;;;;4.97;4.47;;;;;;;24.50;56.26;99877.53;2058442;28;20137;-42
2021/09/06 02:40:16;;;;;;;5.57;4.77;;;;;;;24.49;56.48;99867.56;2059018;28;20022;-42
2021/09/06 02:41:16;;;;;;;5.63;4.50;;;;;;;24.50;56.55;99875.66;2056058;28;20029;-42
2021/09/06 02:42:17;;;;;;;4.63;4.23;;;;;;;24.50;56.39;99872.00;2062533;28;20446;-42
2021/09/06 02:43:18;;;;;;;4.82;4.43;;;;;;;24.49;56.35;99870.31;2057711;28;20041;-42
2021/09/06 02:44:18;;;;;;;4.73;4.20;;;;;;;24.49;56.35;99862.91;2059304;28;20084;-42
2021/09/06 02:45:18;;;;;;;5.03;4.53;;;;;;;24.51;56.42;99873.75;2057697;28;20563;-42
2021/09/06 02:46:19;;;;;;;5.23;4.50;;;;;;;24.49;56.34;99871.16;2056853;28;20033;-43
2021/09/06 02:47:19;;;;;;;5.83;5.23;;;;;;;24.50;56.48;99877.53;2062209;28;20575;-42
2021/09/06 02:48:20;;;;;;;4.83;4.27;;;;;;;24.50;56.50;99872.00;2061482;28;20646;-42
2021/09/06 02:49:20;;;;;;;4.87;4.37;;;;;;;24.49;56.44;99875.81;2064198;28;20363;-42
2021/09/06 02:50:21;;;;;;;4.70;4.20;;;;;;;24.49;56.36;99871.16;2061001;28;20033;-42
2021/09/06 02:51:21;;;;;;;5.07;4.33;;;;;;;24.50;56.49;99877.53;2062809;28;20328;-42
2021/09/06 02:52:22;;;;;;;6.47;4.83;;;;;;;24.49;56.64;99870.31;2065708;28;20033;-42
2021/09/06 02:53:22;;;;;;;4.80;4.30;;;;;;;24.49;56.41;99873.91;2058403;28;20075;-43
2021/09/06 02:54:23;;;;;;;5.00;4.50;;;;;;;24.49;56.55;99871.16;2060077;28;20125;-42
2021/09/06 02:55:23;;;;;;;6.13;4.50;;;;;;;24.48;56.72;99879.63;2062366;28;20025;-42
2021/09/06 02:56:24;;;;;;;4.80;4.20;;;;;;;24.48;56.47;99874.13;2059308;28;20475;-42
2021/09/06 02:57:24;;;;;;;4.43;4.03;;;;;;;24.48;56.57;99874.97;2060647;28;20025;-42
2021/09/06 02:58:25;;;;;;;5.97;4.50;;;;;;;24.49;56.73;99875.81;2054804;28;20028;-43
2021/09/06 02:59:25;;;;;;;5.40;4.60;;;;;;;24.47;56.64;99873.25;2054199;28;20042;-42
2021/09/06 03:00:26;;;;;;;5.00;4.50;;;;;;;24.49;56.60;99875.81;2059286;28;20030;-42
2021/09/06 03:01:26;;;;;;;5.05;4.38;;;;;;;24.49;56.54;99873.06;2060870;28;20029;-42
2021/09/06 03:02:28;;;;;;;5.03;4.47;;;;;;;24.47;56.54;99872.41;2059882;28;20034;-42
2021/09/06 03:03:29;;;;;;;4.97;4.47;;;;;;;24.49;56.56;99864.81;2061804;28;20033;-42
2021/09/06 03:04:30;;;;;;;5.13;4.63;;;;;;;24.48;56.71;99863.09;2061303;28;20170;-42
2021/09/06 03:05:31;;;;;;;5.10;4.60;;;;;;;24.48;56.69;99866.72;2059246;28;20040;-43
2021/09/06 03:06:32;;;;;;;4.78;4.30;;;;;;;24.47;56.51;99862.22;2058130;28;20124;-42
2021/09/06 03:07:33;;;;;;;4.63;4.23;;;;;;;24.48;56.63;99868.63;2056611;28;20056;-43
2021/09/06 03:08:33;;;;;;;5.15;4.65;;;;;;;24.49;56.43;99870.31;2056495;28;20021;-42
2021/09/06 03:09:34;;;;;;;5.20;4.70;;;;;;;24.48;56.49;99871.38;2057133;28;20030;-42
2021/09/06 03:10:34;;;;;;;6.03;5.20;;;;;;;24.48;56.56;99874.13;2061020;28;20072;-42
2021/09/06 03:11:35;;;;;;;5.23;4.37;;;;;;;24.48;56.51;99871.38;2059840;28;20033;-42
2021/09/06 03:12:35;;;;;;;5.67;4.73;;;;;;;24.48;56.58;99868.63;2065565;28;20637;-43
2021/09/06 03:13:36;;;;;;;5.17;4.40;;;;;;;24.49;56.54;99870.31;2060301;28;20531;-42
2021/09/06 03:14:36;;;;;;;4.53;4.10;;;;;;;24.48;56.56;99866.72;2063576;28;20030;-43
2021/09/06 03:15:36;;;;;;;4.47;4.07;;;;;;;24.48;56.63;99874.13;2061174;28;20387;-42
2021/09/06 03:16:37;;;;;;;5.13;4.63;;;;;;;24.47;56.76;99862.22;2060271;28;20021;-42
2021/09/06 03:17:38;;;;;;;5.47;4.90;;;;;;;24.47;56.54;99864.13;2060424;28;20139;-41
2021/09/06 03:18:38;;;;;;;4.43;4.03;;;;;;;24.47;56.56;99873.25;2058390;28;20089;-42
2021/09/06 03:19:38;;;;;;;5.73;5.17;;;;;;;24.46;56.56;99865.19;2055364;28;20038;-42
2021/09/06 03:20:39;;;;;;;5.73;5.17;;;;;;;24.47;56.50;99866.91;2061487;28;20029;-42
2021/09/06 03:21:39;;;;;;;5.47;4.97;;;;;;;24.47;56.64;99866.91;2059942;28;20030;-43
2021/09/06 03:22:40;;;;;;;5.23;4.70;;;;;;;24.47;56.68;99864.97;2062871;28;20091;-42
2021/09/06 03:23:40;;;;;;;4.87;4.37;;;;;;;24.46;56.80;99862.44;2060723;28;20033;-42
2021/09/06 03:24:41;;;;;;;4.40;4.00;;;;;;;24.46;56.74;99865.19;2061536;28;20064;-43
2021/09/06 03:25:41;;;;;;;5.00;4.50;;;;;;;24.47;56.62;99872.41;2061867;28;20032;-42
2021/09/06 03:26:42;;;;;;;4.60;4.10;;;;;;;24.47;56.46;99866.91;2058022;28;20152;-42
2021/09/06 03:27:42;;;;;;;4.90;4.33;;;;;;;24.46;56.62;99865.19;2060444;28;20490;-43
2021/09/06 03:28:43;;;;;;;4.53;4.13;;;;;;;24.46;56.57;99868.81;2058483;28;20053;-42
2021/09/06 03:29:43;;;;;;;4.93;4.43;;;;;;;24.47;56.56;99873.25;2061491;28;20029;-43
2021/09/06 03:30:43;;;;;;;5.03;4.50;;;;;;;24.47;56.54;99875.16;2063060;28;20467;-42
2021/09/06 03:31:44;;;;;;;4.70;4.30;;;;;;;24.46;56.46;99865.19;2060106;28;20030;-42
2021/09/06 03:32:44;;;;;;;5.73;5.07;;;;;;;24.46;56.57;99865.19;2065115;28;20027;-42
2021/09/06 03:33:45;;;;;;;5.03;4.53;;;;;;;24.47;56.64;99864.13;2058060;28;20025;-42
2021/09/06 03:34:45;;;;;;;4.70;4.30;;;;;;;24.46;56.62;99867.94;2061031;28;20025;-42
2021/09/06 03:35:46;;;;;;;5.47;4.47;;;;;;;24.46;56.49;99865.19;2060153;28;20064;-43
2021/09/06 03:36:46;;;;;;;6.17;4.20;;;;;;;24.46;56.62;99862.44;2063201;28;20124;-42
2021/09/06 03:37:46;;;;;;;4.67;4.23;;;;;;;24.46;56.59;99859.69;2064047;28;20033;-42
2021/09/06 03:38:48;;;;;;;4.73;4.27;;;;;;;24.45;56.58;99867.06;2056838;28;20030;-43
2021/09/06 03:39:48;;;;;;;5.00;4.50;;;;;;;24.46;56.59;99859.69;2060043;28;20403;-42
2021/09/06 03:40:49;;;;;;;5.37;4.20;;;;;;;24.46;56.58;99865.19;2061559;28;20116;-42
2021/09/06 03:41:49;;;;;;;5.03;4.53;;;;;;;24.45;56.60;99853.28;2059503;28;20053;-42
2021/09/06 03:42:50;;;;;;;5.60;4.53;;;;;;;24.45;56.43;99858.81;2063759;28;20101;-42
2021/09/06 03:43:50;;;;;;;5.73;4.63;;;;;;;24.45;56.67;99867.06;2058794;28;20030;-42
2021/09/06 03:44:51;;;;;;;5.33;4.53;;;;;;;24.45;56.63;99860.69;2059069;28;20431;-42
2021/09/06 03:45:51;;;;;;;6.00;4.47;;;;;;;24.45;56.69;99864.31;2058481;28;20028;-42
2021/09/06 03:46:52;;;;;;;4.67;4.10;;;;;;;24.46;56.73;99859.69;2058814;28;20022;-42
2021/09/06 03:47:53;;;;;;;5.27;4.77;;;;;;;24.45;56.43;99853.28;2058193;28;20054;-42
2021/09/06 03:48:53;;;;;;;5.17;4.63;;;;;;;24.44;56.51;99856.22;2058059;28;20368;-42
2021/09/06 03:49:53;;;;;;;4.80;4.27;;;;;;;24.45;56.56;99855.16;2059533;28;20475;-42
2021/09/06 03:50:54;;;;;;;4.60;4.20;;;;;;;24.44;56.52;99857.06;2061859;28;20033;-43
2021/09/06 03:51:55;;;;;;;4.93;4.47;;;;;;;24.45;56.56;99852.41;2058359;28;20050;-42
2021/09/06 03:52:56;;;;;;;4.87;4.37;;;;;;;24.45;56.51;99852.41;2056507;28;20072;-42
2021/09/06 03:53:56;;;;;;;5.03;4.33;;;;;;;24.44;56.59;99856.22;2059771;28;20029;-43
2021/09/06 03:54:57;;;;;;;4.53;4.13;;;;;;;24.45;56.78;99852.41;2060873;28;20065;-42
2021/09/06 03:55:58;;;;;;;5.17;4.67;;;;;;;24.44;56.58;99857.06;2057545;28;20325;-43
2021/09/06 03:56:58;;;;;;;5.27;4.63;;;;;;;24.45;56.53;99857.91;2063744;28;20048;-43
2021/09/06 03:57:59;;;;;;;4.73;4.17;;;;;;;24.44;56.80;99856.22;2056164;28;20862;-42
2021/09/06 03:58:59;;;;;;;4.57;4.17;;;;;;;24.44;56.56;99854.31;2059663;28;20044;-42
2021/09/06 04:00:00;;;;;;;5.17;4.67;;;;;;;24.44;56.48;99856.22;2058611;28;20064;-42
2021/09/06 04:01:00;;;;;;;5.03;4.37;;;;;;;24.45;56.66;99857.91;2057424;28;20836;-42
2021/09/06 04:02:01;;;;;;;5.27;4.77;;;;;;;24.45;56.54;99863.44;2057738;28;20764;-42
2021/09/06 04:03:01;;;;;;;4.70;4.27;;;;;;;24.44;56.66;99857.06;2059554;28;20029;-42
2021/09/06 04:04:02;;;;;;;4.63;4.10;;;;;;;24.44;56.55;99857.06;2058193;28;20144;-43
2021/09/06 04:05:03;;;;;;;5.30;4.80;;;;;;;24.44;56.70;99853.47;2061023;28;20030;-42
2021/09/06 04:06:04;;;;;;;4.80;4.25;;;;;;;24.43;56.79;99855.38;2058722;28;20030;-42
2021/09/06 04:07:04;;;;;;;6.13;5.30;;;;;;;24.43;56.49;99854.53;2059104;28;20048;-42
2021/09/06 04:08:05;;;;;;;4.50;4.10;;;;;;;24.44;56.52;99856.22;2059163;28;20030;-43
2021/09/06 04:09:06;;;;;;;4.70;4.22;;;;;;;24.43;56.67;99866.41;2058731;28;20029;-42
2021/09/06 04:10:07;;;;;;;5.23;4.60;;;;;;;24.44;56.83;99857.06;2064331;28;20033;-42
2021/09/06 04:11:09;;;;;;;4.65;4.25;;;;;;;24.44;56.51;99858.97;2053606;28;20418;-42
2021/09/06 04:12:09;;;;;;;4.88;4.38;;;;;;;24.44;56.67;99857.06;2057545;28;20258;-42
2021/09/06 04:13:10;;;;;;;5.37;4.57;;;;;;;24.44;56.67;99861.75;2058222;28;20026;-43
2021/09/06 04:14:15;;;;;;;5.00;4.50;;;;;;;24.44;56.70;99867.25;2054283;28;20018;-42
2021/09/06 04:15:16;;;;;;;5.20;4.70;;;;;;;24.43;56.71;99858.13;2066024;28;20056;-43
2021/09/06 04:16:16;;;;;;;4.37;3.93;;;;;;;24.44;56.71;99856.22;2058606;28;20833;-42
2021/09/06 04:17:17;;;;;;;4.60;4.20;;;;;;;24.43;56.75;99863.66;2063188;28;20243;-42
2021/09/06 04:18:17;;;;;;;4.57;4.03;;;;;;;24.44;56.82;99856.22;2062213;28;20646;-43
2021/09/06 04:19:18;;;;;;;4.20;3.80;;;;;;;24.43;56.76;99854.53;2057766;28;20029;-42
2021/09/06 04:20:18;;;;;;;4.63;4.20;;;;;;;24.44;56.83;99864.50;2060055;28;20092;-43
2021/09/06 04:21:19;;;;;;;4.57;4.03;;;;;;;24.43;56.68;99860.03;2060640;28;20046;-42
2021/09/06 04:22:19;;;;;;;4.93;4.43;;;;;;;24.43;56.80;99865.56;2059076;28;20056;-42
2021/09/06 04:23:20;;;;;;;4.80;4.30;;;;;;;24.43;56.64;99866.41;2060921;28;20404;-42
2021/09/06 04:24:20;;;;;;;5.73;4.23;;;;;;;24.43;56.58;99860.03;2061702;28;20079;-42
2021/09/06 04:25:21;;;;;;;5.70;4.87;;;;;;;24.43;56.66;99860.88;2064190;28;20060;-43
2021/09/06 04:26:21;;;;;;;4.83;4.33;;;;;;;24.44;56.53;99864.50;2056875;28;20111;-42
2021/09/06 04:27:22;;;;;;;5.63;4.40;;;;;;;24.43;56.79;99863.66;2060864;28;20455;-42
2021/09/06 04:28:23;;;;;;;4.93;4.20;;;;;;;24.44;56.63;99867.25;2061582;28;20022;-42
2021/09/06 04:29:24;;;;;;;4.53;4.10;;;;;;;24.43;56.72;99865.56;2060066;28;20483;-42
2021/09/06 04:30:24;;;;;;;5.87;3.90;;;;;;;24.42;56.78;99864.66;2058972;28;20010;-42
2021/09/06 04:31:24;;;;;;;4.50;4.10;;;;;;;24.42;56.78;99863.81;2058749;28;20033;-42
2021/09/06 04:32:25;;;;;;;4.97;4.47;;;;;;;24.43;56.77;99865.56;2061615;28;20034;-42
2021/09/06 04:33:26;;;;;;;4.57;4.17;;;;;;;24.43;56.76;99860.03;2062714;28;20045;-42
2021/09/06 04:34:26;;;;;;;4.60;3.90;;;;;;;24.43;56.67;99871.06;2062452;28;20127;-42
2021/09/06 04:35:27;;;;;;;4.77;3.97;;;;;;;24.42;56.79;99864.66;2060996;28;20119;-44
2021/09/06 04:36:27;;;;;;;4.77;4.23;;;;;;;24.42;56.76;99870.19;2059271;28;20472;-42
2021/09/06 04:37:28;;;;;;;4.20;3.80;;;;;;;24.42;56.84;99869.34;2061877;28;20459;-42
2021/09/06 04:38:28;;;;;;;4.90;4.43;;;;;;;24.42;56.76;99867.44;2059356;28;20029;-42
2021/09/06 04:39:29;;;;;;;4.73;4.33;;;;;;;24.42;56.55;99864.66;2059694;28;20300;-43
2021/09/06 04:40:30;;;;;;;4.53;4.10;;;;;;;24.44;56.79;99872.75;2062438;28;21024;-42
2021/09/06 04:41:30;;;;;;;4.57;3.67;;;;;;;24.43;56.73;99865.56;2058691;28;20029;-42
2021/09/06 04:42:31;;;;;;;4.67;4.10;;;;;;;24.42;56.84;99869.34;2067303;28;20040;-43
2021/09/06 04:43:31;;;;;;;4.80;4.30;;;;;;;24.43;56.75;99873.81;2053970;28;20031;-42
2021/09/06 04:44:32;;;;;;;5.63;3.80;;;;;;;24.43;56.75;99876.56;2062375;28;20044;-43
2021/09/06 04:45:33;;;;;;;4.53;3.95;;;;;;;24.43;56.73;99879.31;2069275;28;20124;-43